Terminal Aerodrome Forecast
Issued by NWS Twin Cities, MN

Home | Current Version | Previous Version | Text Only | Print | Product List | Glossary Off
Versions: 1 2 3 4 5 6 7 8 9 10 11 12 13 14 15 16 17 18 19 20 21 22 23 24 25 26 27 28 29 30 31

000
FTUS43 KMPX 302320
TAFMSP
TAF
KMSP 302320Z 3100/0106 18007KT P6SM FEW090
     FM310300 19005KT P6SM SCT150
     FM310600 22006KT P6SM FEW150
     FM311200 34008KT P6SM OVC015
     FM311900 02008KT P6SM BKN020
     FM312200 03009KT P6SM SCT020
     FM010000 04010KT P6SM SCT020 OVC100=

USA.gov is the U.S. government's official web portal to all federal, state and local government web resources and services.